Rechercher aéroport 
image banner adimage banner adimage banner ad
image banner ad

PN62 - Cataney

Situé à Midway, United States

ICAO - PN62, IATA -

Données fournies par Airmate  

Information générale

Coordonnées: N40°22'30" W80°17'59"
Élévation : 1200 feet MSL.
Variation magnétique : -07° East
Voir autres Aéroports à Pennsylvania

Données opérationnelles

Special qualification required
Heure actuelle UTC:
Heure actuelle locale:
Météo à : KPIT - Pittsburgh Intl ( 14 km )
METAR: KPIT 150551Z 32006KT 10SM FEW085 16/12 A2990 RMK AO2 SLP124 T01610122 10211 20161 52005
TAF: KPIT 150536Z 1506/1612 32006KT P6SM SCT060 FM151600 33010G18KT P6SM SCT040 FM160000 33008KT P6SM SCT150
Voir NOTAMs / SUP AIP / TFR affectant cet aéroport [VIEW]
Fréquences de communication: [VIEW]

Pistes:

Identifiant RWYQFULongueur (ft)Largeur (ft)SurfaceLDA (ft)
121300100GRASS
301300100GRASS

Coordonnées de l'aéroport

Adresse: Midway United States

Vue satellite de PN62